createdAt,value
2023-04-18T00:01:12.397Z,100644.74
2023-04-18T00:03:48.607Z,100649.30
2023-04-18T00:06:22.322Z,100649.83
2023-04-18T00:08:54.244Z,100646.48
2023-04-18T00:11:25.873Z,100649.37
2023-04-18T00:13:57.702Z,100644.95
2023-04-18T00:16:29.517Z,100645.33
2023-04-18T00:19:02.526Z,100643.52
2023-04-18T00:21:34.126Z,100640.51
2023-04-18T00:24:05.769Z,100638.09
2023-04-18T00:26:37.218Z,100637.14
2023-04-18T00:29:08.998Z,100634.39
2023-04-18T00:31:40.633Z,100632.61
2023-04-18T00:34:12.213Z,100626.77
2023-04-18T00:36:43.690Z,100625.58
2023-04-18T00:39:15.164Z,100623.02
2023-04-18T00:41:46.721Z,100619.17
2023-04-18T00:44:18.322Z,100613.30
2023-04-18T00:46:49.711Z,100610.54
2023-04-18T00:49:21.230Z,100608.17
2023-04-18T00:51:52.525Z,100605.25
2023-04-18T00:54:23.938Z,100600.55
2023-04-18T00:56:56.277Z,100597.50
2023-04-18T00:59:27.795Z,100592.27
2023-04-18T01:01:59.206Z,100586.71
2023-04-18T01:04:30.486Z,100585.41
2023-04-18T01:07:02.351Z,100580.39
2023-04-18T01:09:33.858Z,100576.48
2023-04-18T01:12:05.606Z,100570.98
2023-04-18T01:14:36.952Z,100565.58
2023-04-18T01:17:10.956Z,100564.02
2023-04-18T01:19:42.817Z,100562.91
2023-04-18T01:22:14.371Z,100561.07
2023-04-18T01:24:45.919Z,100559.85
2023-04-18T01:27:17.263Z,100561.83
2023-04-18T01:29:48.614Z,100562.36
2023-04-18T01:32:20.716Z,100562.60
2023-04-18T01:34:52.456Z,100561.02
2023-04-18T01:37:24.174Z,100559.55
2023-04-18T01:39:55.561Z,100556.53
2023-04-18T01:42:27.061Z,100554.64
2023-04-18T01:44:58.551Z,100554.21
2023-04-18T01:47:30.063Z,100550.64
2023-04-18T01:50:01.593Z,100554.31
2023-04-18T01:52:32.850Z,100549.11
2023-04-18T01:55:04.355Z,100549.59
2023-04-18T01:57:37.037Z,100548.33
2023-04-18T02:00:09.602Z,100552.27
2023-04-18T02:02:41.328Z,100555.26
2023-04-18T02:05:12.808Z,100557.02
2023-04-18T02:07:44.149Z,100555.96
2023-04-18T02:10:15.460Z,100556.11
2023-04-18T02:12:47.026Z,100555.50
2023-04-18T02:15:18.476Z,100556.83
2023-04-18T02:17:50.572Z,100558.73
2023-04-18T02:20:22.138Z,100556.30
2023-04-18T02:22:53.633Z,100555.59
2023-04-18T02:25:27.146Z,100552.98
2023-04-18T02:27:58.897Z,100554.66
2023-04-18T02:30:30.299Z,100551.39
2023-04-18T02:33:01.701Z,100555.20
2023-04-18T02:35:33.240Z,100560.73
2023-04-18T02:38:04.862Z,100558.77
2023-04-18T02:40:36.457Z,100563.52
2023-04-18T02:43:08.409Z,100566.14
2023-04-18T02:45:39.721Z,100566.84
2023-04-18T02:48:11.238Z,100568.36
2023-04-18T02:50:42.805Z,100568.33
2023-04-18T02:53:14.390Z,100565.40
2023-04-18T02:55:45.764Z,100566.23
2023-04-18T02:58:17.028Z,100570.63
2023-04-18T03:00:50.288Z,100571.29
2023-04-18T03:03:21.988Z,100570.73
2023-04-18T03:05:53.652Z,100569.77
2023-04-18T03:08:25.054Z,100569.55
2023-04-18T03:10:56.785Z,100565.46
2023-04-18T03:13:28.234Z,100567.88
2023-04-18T03:16:00.019Z,100567.84
2023-04-18T03:18:31.759Z,100571.55
2023-04-18T03:21:02.869Z,100571.71
2023-04-18T03:23:34.294Z,100569.55
2023-04-18T03:26:05.785Z,100564.54
2023-04-18T03:28:37.196Z,100566.89
2023-04-18T03:31:08.776Z,100567.30
2023-04-18T03:33:45.922Z,100568.87
2023-04-18T03:36:21.245Z,100568.40
2023-04-18T03:38:52.854Z,100571.86
2023-04-18T03:41:25.106Z,100572.64
2023-04-18T03:43:56.701Z,100571.22
2023-04-18T03:46:28.040Z,100568.00
2023-04-18T03:48:59.309Z,100569.65
2023-04-18T03:51:31.398Z,100567.13
2023-04-18T03:54:03.035Z,100570.52
2023-04-18T03:56:34.608Z,100572.68
2023-04-18T03:59:05.901Z,100574.50
2023-04-18T04:01:37.487Z,100575.66
2023-04-18T04:04:12.213Z,100579.83
2023-04-18T04:06:44.049Z,100582.06
2023-04-18T04:09:15.712Z,100584.46
2023-04-18T04:11:58.688Z,100585.60
2023-04-18T04:14:38.337Z,100589.56
2023-04-18T04:17:09.909Z,100590.39
2023-04-18T04:19:41.606Z,100593.15
2023-04-18T04:22:13.708Z,100597.70
2023-04-18T04:24:47.026Z,100600.71
2023-04-18T04:27:19.108Z,100600.81
2023-04-18T04:29:51.966Z,100599.42
2023-04-18T04:32:24.144Z,100602.30
2023-04-18T04:34:56.500Z,100603.11
2023-04-18T04:37:27.852Z,100605.35
2023-04-18T04:40:01.162Z,100606.34
2023-04-18T04:42:32.607Z,100609.94
2023-04-18T04:45:04.337Z,100612.52
2023-04-18T04:47:35.963Z,100613.64
2023-04-18T04:50:14.861Z,100613.59
2023-04-18T04:52:46.315Z,100614.52
2023-04-18T04:55:17.957Z,100614.11
2023-04-18T04:57:49.531Z,100615.14
2023-04-18T05:00:22.144Z,100618.02
2023-04-18T05:02:54.710Z,100618.04
2023-04-18T05:05:26.083Z,100622.29
2023-04-18T05:07:57.429Z,100619.80
2023-04-18T05:10:28.826Z,100624.44
2023-04-18T05:13:00.200Z,100629.56
2023-04-18T05:15:31.609Z,100632.14
2023-04-18T05:18:02.965Z,100636.21
2023-04-18T05:20:34.551Z,100636.50
2023-04-18T05:23:06.133Z,100635.20
2023-04-18T05:25:37.717Z,100637.00
2023-04-18T05:28:09.560Z,100639.51
2023-04-18T05:30:40.952Z,100640.25
2023-04-18T05:33:12.176Z,100642.94
2023-04-18T05:35:43.740Z,100652.80
2023-04-18T05:38:15.328Z,100650.52
2023-04-18T05:40:46.979Z,100651.55
2023-04-18T05:43:18.262Z,100653.30
2023-04-18T05:45:49.820Z,100652.56
2023-04-18T05:48:21.586Z,100651.78
2023-04-18T05:50:53.489Z,100652.99
2023-04-18T05:53:24.888Z,100656.99
2023-04-18T05:55:57.783Z,100658.76
2023-04-18T05:58:30.071Z,100658.27
2023-04-18T06:01:01.926Z,100660.70
2023-04-18T06:03:34.265Z,100665.02
2023-04-18T06:06:06.197Z,100661.42
2023-04-18T06:08:37.938Z,100659.51
2023-04-18T06:11:09.727Z,100657.13
2023-04-18T06:13:41.419Z,100657.63
2023-04-18T06:16:13.357Z,100653.09
2023-04-18T06:18:44.518Z,100654.72
2023-04-18T06:21:15.898Z,100656.50
2023-04-18T06:23:47.440Z,100656.68
2023-04-18T06:26:18.946Z,100658.94
2023-04-18T06:28:50.384Z,100659.20
2023-04-18T06:31:21.714Z,100656.48
2023-04-18T06:33:53.173Z,100656.63
2023-04-18T06:36:24.668Z,100656.19
2023-04-18T06:38:56.229Z,100661.04
2023-04-18T06:41:27.735Z,100662.84
2023-04-18T06:44:04.243Z,100665.17
2023-04-18T06:46:36.159Z,100660.42
2023-04-18T06:49:07.639Z,100661.77
2023-04-18T06:51:39.274Z,100661.10
2023-04-18T06:54:10.906Z,100666.05
2023-04-18T06:56:42.031Z,100661.55
2023-04-18T06:59:13.496Z,100663.48
2023-04-18T07:01:45.118Z,100665.45
2023-04-18T07:04:17.211Z,100664.33
2023-04-18T07:06:48.872Z,100661.92
2023-04-18T07:09:20.230Z,100661.10
2023-04-18T07:11:52.801Z,100667.63
2023-04-18T07:14:24.745Z,100667.20
2023-04-18T07:16:57.790Z,100673.98
2023-04-18T07:19:29.760Z,100677.20
2023-04-18T07:22:01.394Z,100674.91
2023-04-18T07:24:32.930Z,100672.55
2023-04-18T07:27:05.004Z,100669.14
2023-04-18T07:29:36.612Z,100670.15
2023-04-18T07:32:08.635Z,100667.52
2023-04-18T07:34:40.456Z,100670.73
2023-04-18T07:37:13.423Z,100670.14
2023-04-18T07:39:46.245Z,100672.84
2023-04-18T07:42:17.893Z,100670.64
2023-04-18T07:44:49.789Z,100670.17
2023-04-18T07:47:22.276Z,100667.84
2023-04-18T07:49:54.115Z,100664.98
2023-04-18T07:52:25.926Z,100675.88
2023-04-18T07:54:57.653Z,100681.05
2023-04-18T07:57:29.350Z,100688.89
2023-04-18T08:00:01.023Z,100686.59
2023-04-18T08:02:32.565Z,100690.79
2023-04-18T08:05:04.545Z,100690.21
2023-04-18T08:07:36.454Z,100688.27
2023-04-18T08:10:08.631Z,100688.70
2023-04-18T08:12:40.185Z,100687.93
2023-04-18T08:15:12.371Z,100690.47
2023-04-18T08:17:45.327Z,100691.73
2023-04-18T08:20:16.688Z,100687.52
2023-04-18T08:23:05.200Z,100683.64
2023-04-18T08:25:39.048Z,100691.39
2023-04-18T08:28:11.168Z,100685.64
2023-04-18T08:30:43.391Z,100688.25
2023-04-18T08:33:15.005Z,100689.20
2023-04-18T08:35:46.598Z,100686.55
2023-04-18T08:38:18.476Z,100689.95
2023-04-18T08:40:49.944Z,100687.52
2023-04-18T08:43:21.404Z,100689.27
2023-04-18T08:45:53.971Z,100685.10
2023-04-18T08:48:42.978Z,100683.30
2023-04-18T08:51:14.343Z,100683.58
2023-04-18T08:53:46.038Z,100685.37
2023-04-18T08:56:37.500Z,100688.00
2023-04-18T08:59:26.732Z,100688.80
2023-04-18T09:01:59.514Z,100690.84
2023-04-18T09:04:38.341Z,100687.13
2023-04-18T09:07:11.621Z,100682.14
2023-04-18T09:09:46.447Z,100679.14
2023-04-18T09:12:19.569Z,100685.77
2023-04-18T09:14:51.814Z,100679.41
2023-04-18T09:17:34.719Z,100679.27
2023-04-18T09:20:36.003Z,100679.85
2023-04-18T09:23:26.218Z,100673.98
2023-04-18T09:25:59.221Z,100674.34
2023-04-18T09:28:31.882Z,100672.81
2023-04-18T09:31:09.283Z,100672.63
2023-04-18T09:33:43.153Z,100669.96
2023-04-18T09:36:21.412Z,100673.41
2023-04-18T09:38:56.298Z,100671.20
2023-04-18T09:41:30.601Z,100664.15
2023-04-18T09:44:14.306Z,100658.62
2023-04-18T09:46:47.675Z,100654.61
2023-04-18T09:49:19.255Z,100658.88
2023-04-18T09:51:51.167Z,100657.66
2023-04-18T09:54:24.161Z,100651.25
2023-04-18T09:56:56.582Z,100653.41
2023-04-18T09:59:31.000Z,100654.67
2023-04-18T10:02:03.560Z,100651.27
2023-04-18T10:04:35.756Z,100650.16
2023-04-18T10:07:07.590Z,100648.07
2023-04-18T10:09:39.791Z,100648.98
2023-04-18T10:12:12.617Z,100649.20
2023-04-18T10:14:44.450Z,100653.45
2023-04-18T10:17:17.180Z,100649.27
2023-04-18T10:19:48.527Z,100647.23
2023-04-18T10:22:20.162Z,100650.23
2023-04-18T10:24:53.823Z,100647.59
2023-04-18T10:27:38.761Z,100645.23
2023-04-18T10:30:11.584Z,100643.01
2023-04-18T10:32:43.203Z,100648.73
2023-04-18T10:35:14.512Z,100642.40
2023-04-18T10:37:52.069Z,100642.31
2023-04-18T10:40:34.580Z,100637.86
2023-04-18T10:43:07.016Z,100637.31
2023-04-18T10:45:38.821Z,100641.29
2023-04-18T10:48:27.754Z,100634.71
2023-04-18T10:51:15.749Z,100635.33
2023-04-18T10:53:49.726Z,100635.36
2023-04-18T10:56:22.437Z,100632.80
2023-04-18T10:58:54.160Z,100630.02
2023-04-18T11:01:31.728Z,100628.42
2023-04-18T11:04:04.026Z,100631.55
2023-04-18T11:06:35.616Z,100628.79
2023-04-18T11:09:13.741Z,100630.44
2023-04-18T11:11:45.644Z,100629.64
2023-04-18T11:14:17.183Z,100630.14
2023-04-18T11:16:48.771Z,100628.98
2023-04-18T11:19:21.194Z,100627.53
2023-04-18T11:21:52.925Z,100621.16
2023-04-18T11:24:25.385Z,100622.68
2023-04-18T11:26:57.131Z,100624.98
2023-04-18T11:29:29.112Z,100620.34
2023-04-18T11:32:00.701Z,100612.34
2023-04-18T11:34:32.220Z,100618.89
2023-04-18T11:37:07.089Z,100610.58
2023-04-18T11:39:42.111Z,100618.11
2023-04-18T11:42:13.569Z,100619.27
2023-04-18T11:44:49.360Z,100617.52
2023-04-18T11:47:29.067Z,100618.98
2023-04-18T11:50:01.596Z,100619.09
2023-04-18T11:52:33.259Z,100616.38
2023-04-18T11:55:13.856Z,100619.28
2023-04-18T11:57:45.773Z,100623.55
2023-04-18T12:00:18.252Z,100622.10
2023-04-18T12:02:51.591Z,100627.64
2023-04-18T12:05:29.935Z,100628.16
2023-04-18T12:08:08.169Z,100629.23
2023-04-18T12:10:39.946Z,100628.41
2023-04-18T12:13:11.490Z,100627.23
2023-04-18T12:15:44.711Z,100627.71
2023-04-18T12:18:16.688Z,100625.51
2023-04-18T12:20:50.426Z,100622.20
2023-04-18T12:23:31.820Z,100622.33
2023-04-18T12:26:04.448Z,100616.91
2023-04-18T12:28:36.291Z,100622.46
2023-04-18T12:31:07.722Z,100619.69
2023-04-18T12:33:39.068Z,100616.87
2023-04-18T12:36:11.248Z,100615.32
2023-04-18T12:38:42.873Z,100615.16
2023-04-18T12:41:14.347Z,100616.41
2023-04-18T12:43:45.738Z,100615.25
2023-04-18T12:46:17.009Z,100617.55
2023-04-18T12:48:48.680Z,100617.55
2023-04-18T12:51:20.349Z,100616.84
2023-04-18T12:53:51.785Z,100619.19
2023-04-18T12:56:23.133Z,100624.51
2023-04-18T12:58:54.536Z,100627.66
2023-04-18T13:01:26.384Z,100628.38
2023-04-18T13:04:10.956Z,100627.48
2023-04-18T13:06:44.428Z,100626.29
2023-04-18T13:09:16.750Z,100623.48
2023-04-18T13:11:49.508Z,100626.51
2023-04-18T13:14:21.377Z,100625.06
2023-04-18T13:16:53.109Z,100624.08
2023-04-18T13:19:24.631Z,100625.23
2023-04-18T13:21:55.927Z,100620.75
2023-04-18T13:24:27.205Z,100619.23
2023-04-18T13:26:58.572Z,100621.35
2023-04-18T13:29:30.170Z,100625.35
2023-04-18T13:32:01.610Z,100624.91
2023-04-18T13:34:34.638Z,100623.29
2023-04-18T13:37:06.088Z,100620.84
2023-04-18T13:39:37.304Z,100621.27
2023-04-18T13:42:09.130Z,100623.86
2023-04-18T13:44:40.775Z,100618.81
2023-04-18T13:47:12.138Z,100618.09
2023-04-18T13:49:43.719Z,100621.84
2023-04-18T13:52:15.209Z,100616.10
2023-04-18T13:54:46.622Z,100614.45
2023-04-18T13:57:18.060Z,100615.42
2023-04-18T13:59:49.400Z,100611.57
2023-04-18T14:02:20.774Z,100610.58
2023-04-18T14:04:54.946Z,100607.07
2023-04-18T14:07:26.688Z,100606.86
2023-04-18T14:10:00.321Z,100602.77
2023-04-18T14:12:31.725Z,100600.63
2023-04-18T14:15:03.493Z,100597.02
2023-04-18T14:17:34.953Z,100600.70
2023-04-18T14:20:07.921Z,100600.04
2023-04-18T14:22:39.515Z,100600.44
2023-04-18T14:25:11.520Z,100600.95
2023-04-18T14:27:42.866Z,100598.96
2023-04-18T14:30:15.797Z,100598.14
2023-04-18T14:32:47.404Z,100599.36
2023-04-18T14:35:18.950Z,100600.15
2023-04-18T14:37:50.352Z,100600.63
2023-04-18T14:40:22.229Z,100600.16
2023-04-18T14:42:53.644Z,100596.80
2023-04-18T14:45:25.151Z,100596.02
2023-04-18T14:47:56.840Z,100598.83
2023-04-18T14:50:28.361Z,100593.84
2023-04-18T14:52:59.712Z,100593.73
2023-04-18T14:55:31.209Z,100591.77
2023-04-18T14:58:02.758Z,100587.45
2023-04-18T15:00:34.054Z,100588.54
2023-04-18T15:03:05.996Z,100590.86
2023-04-18T15:05:42.937Z,100587.61
2023-04-18T15:08:14.713Z,100590.84
2023-04-18T15:10:47.702Z,100589.91
2023-04-18T15:13:19.178Z,100584.44
2023-04-18T15:15:57.344Z,100585.89
2023-04-18T15:18:28.955Z,100585.16
2023-04-18T15:21:00.537Z,100589.13
2023-04-18T15:23:32.105Z,100586.69
2023-04-18T15:26:03.628Z,100582.67
2023-04-18T15:28:35.061Z,100579.37
2023-04-18T15:31:06.985Z,100578.52
2023-04-18T15:33:38.530Z,100578.09
2023-04-18T15:36:10.323Z,100578.64
2023-04-18T15:38:43.110Z,100574.77
2023-04-18T15:41:14.236Z,100571.31
2023-04-18T15:43:45.834Z,100569.29
2023-04-18T15:46:17.547Z,100567.04
2023-04-18T15:48:49.229Z,100568.88
2023-04-18T15:51:20.750Z,100573.17
2023-04-18T15:53:52.766Z,100576.55
2023-04-18T15:56:26.177Z,100573.33
2023-04-18T15:58:57.884Z,100572.77
2023-04-18T16:01:29.807Z,100573.95
2023-04-18T16:04:01.675Z,100573.08
2023-04-18T16:06:33.882Z,100571.79
2023-04-18T16:09:06.988Z,100571.23
2023-04-18T16:11:38.462Z,100570.73
2023-04-18T16:14:10.021Z,100570.65
2023-04-18T16:16:41.395Z,100571.55
2023-04-18T16:19:12.892Z,100571.02
2023-04-18T16:21:44.346Z,100563.87
2023-04-18T16:24:17.382Z,100567.52
2023-04-18T16:26:49.088Z,100566.23
2023-04-18T16:29:20.652Z,100566.75
2023-04-18T16:31:52.144Z,100571.38
2023-04-18T16:34:23.355Z,100569.86
2023-04-18T16:36:55.588Z,100573.42
2023-04-18T16:39:28.228Z,100572.51
2023-04-18T16:41:59.652Z,100569.49
2023-04-18T16:44:31.372Z,100572.86
2023-04-18T16:47:02.953Z,100574.98
2023-04-18T16:49:34.376Z,100576.86
2023-04-18T16:52:06.036Z,100575.69
2023-04-18T16:54:37.253Z,100576.05
2023-04-18T16:57:08.644Z,100575.46
2023-04-18T16:59:39.765Z,100579.45
2023-04-18T17:02:12.036Z,100577.55
2023-04-18T17:04:43.855Z,100572.64
2023-04-18T17:07:15.427Z,100574.45
2023-04-18T17:09:46.737Z,100572.67
2023-04-18T17:12:18.090Z,100572.89
2023-04-18T17:14:49.614Z,100573.16
2023-04-18T17:17:21.193Z,100572.88
2023-04-18T17:19:52.947Z,100575.48
2023-04-18T17:22:24.263Z,100577.13
2023-04-18T17:24:55.545Z,100577.60
2023-04-18T17:27:26.920Z,100582.80
2023-04-18T17:29:58.516Z,100584.17
2023-04-18T17:32:29.986Z,100587.34
2023-04-18T17:35:04.368Z,100593.08
2023-04-18T17:37:35.533Z,100594.90
2023-04-18T17:40:09.797Z,100599.02
2023-04-18T17:42:41.682Z,100601.80
2023-04-18T17:45:13.124Z,100604.12
2023-04-18T17:47:44.598Z,100606.75
2023-04-18T17:50:15.997Z,100610.53
2023-04-18T17:52:47.418Z,100611.48
2023-04-18T17:55:19.028Z,100610.03
2023-04-18T17:57:50.542Z,100609.55
2023-04-18T18:00:22.215Z,100606.46
2023-04-18T18:02:53.762Z,100606.25
2023-04-18T18:05:28.271Z,100605.33
2023-04-18T18:08:00.109Z,100606.53
2023-04-18T18:10:32.100Z,100607.13
2023-04-18T18:13:03.543Z,100603.56
2023-04-18T18:15:35.695Z,100601.38
2023-04-18T18:18:07.683Z,100601.02
2023-04-18T18:20:39.478Z,100599.55
2023-04-18T18:23:11.211Z,100598.04
2023-04-18T18:25:43.211Z,100600.86
2023-04-18T18:28:14.515Z,100603.05
2023-04-18T18:30:46.108Z,100604.88
2023-04-18T18:33:17.879Z,100606.80
2023-04-18T18:35:49.245Z,100606.03
2023-04-18T18:38:20.493Z,100607.89
2023-04-18T18:40:51.880Z,100607.30
2023-04-18T18:43:26.424Z,100607.45
2023-04-18T18:45:58.211Z,100608.91
2023-04-18T18:48:30.022Z,100608.95
2023-04-18T18:51:01.423Z,100602.91
2023-04-18T18:53:32.786Z,100605.77
2023-04-18T18:56:04.001Z,100606.89
2023-04-18T18:58:35.748Z,100601.75
2023-04-18T19:01:07.291Z,100605.13
2023-04-18T19:03:38.744Z,100604.41
2023-04-18T19:06:10.202Z,100602.88
2023-04-18T19:08:41.638Z,100605.50
2023-04-18T19:11:13.181Z,100608.29
2023-04-18T19:13:44.648Z,100607.79
2023-04-18T19:16:16.021Z,100610.96
2023-04-18T19:18:49.471Z,100615.95
2023-04-18T19:21:24.053Z,100618.70
2023-04-18T19:23:55.866Z,100619.48
2023-04-18T19:26:27.173Z,100614.58
2023-04-18T19:28:58.438Z,100613.73
2023-04-18T19:31:29.707Z,100618.27
2023-04-18T19:34:00.975Z,100613.94
2023-04-18T19:36:32.667Z,100613.41
2023-04-18T19:39:07.112Z,100606.31
2023-04-18T19:41:38.353Z,100605.33
2023-04-18T19:44:09.466Z,100604.66
2023-04-18T19:46:40.832Z,100602.88
2023-04-18T19:49:12.825Z,100602.76
2023-04-18T19:51:44.601Z,100604.31
2023-04-18T19:54:16.102Z,100604.55
2023-04-18T19:56:47.468Z,100604.71
2023-04-18T19:59:19.204Z,100605.64
2023-04-18T20:01:50.723Z,100603.83
2023-04-18T20:04:23.876Z,100601.95
2023-04-18T20:06:56.311Z,100604.98
2023-04-18T20:09:27.675Z,100604.11
2023-04-18T20:12:01.617Z,100606.59
2023-04-18T20:14:33.268Z,100607.16
2023-04-18T20:17:04.904Z,100605.45
2023-04-18T20:19:36.568Z,100607.94
2023-04-18T20:22:07.958Z,100605.20
2023-04-18T20:24:40.440Z,100601.80
2023-04-18T20:27:12.066Z,100602.58
2023-04-18T20:29:43.821Z,100596.37
2023-04-18T20:32:15.020Z,100595.00
2023-04-18T20:34:47.007Z,100592.90
2023-04-18T20:37:20.059Z,100588.11
2023-04-18T20:39:53.024Z,100588.26
2023-04-18T20:42:24.429Z,100588.02
2023-04-18T20:44:55.693Z,100585.77
2023-04-18T20:47:27.904Z,100585.30
2023-04-18T20:50:00.526Z,100581.19
2023-04-18T20:52:32.119Z,100581.83
2023-04-18T20:55:03.705Z,100581.37
2023-04-18T20:57:35.117Z,100580.59
2023-04-18T21:00:07.360Z,100580.35
2023-04-18T21:02:39.074Z,100575.91
2023-04-18T21:05:10.962Z,100573.88
2023-04-18T21:07:44.106Z,100573.17
2023-04-18T21:10:17.173Z,100570.56
2023-04-18T21:12:48.474Z,100563.84
2023-04-18T21:15:19.978Z,100566.80
2023-04-18T21:17:52.300Z,100562.95
2023-04-18T21:20:24.035Z,100558.14
2023-04-18T21:22:55.343Z,100559.39
2023-04-18T21:25:26.668Z,100556.90
2023-04-18T21:27:58.191Z,100553.88
2023-04-18T21:30:29.750Z,100556.27
2023-04-18T21:33:01.527Z,100553.40
2023-04-18T21:35:32.901Z,100550.98
2023-04-18T21:38:04.079Z,100555.83
2023-04-18T21:40:35.684Z,100554.85
2023-04-18T21:43:07.281Z,100556.91
2023-04-18T21:45:38.936Z,100554.98
2023-04-18T21:48:11.635Z,100552.91
2023-04-18T21:50:43.192Z,100554.52
2023-04-18T21:53:14.608Z,100553.06
2023-04-18T21:55:46.229Z,100554.42
2023-04-18T21:58:17.815Z,100553.33
2023-04-18T22:00:49.193Z,100556.17
2023-04-18T22:03:20.764Z,100555.29
2023-04-18T22:05:53.447Z,100555.98
2023-04-18T22:08:26.493Z,100555.92
2023-04-18T22:10:59.296Z,100558.09
2023-04-18T22:13:32.992Z,100555.83
2023-04-18T22:16:04.934Z,100551.29
2023-04-18T22:18:37.989Z,100552.93
2023-04-18T22:21:10.733Z,100554.33
2023-04-18T22:23:42.308Z,100555.59
2023-04-18T22:26:13.632Z,100561.23
2023-04-18T22:28:45.044Z,100559.79
2023-04-18T22:31:16.633Z,100558.59
2023-04-18T22:33:48.689Z,100555.72
2023-04-18T22:36:20.141Z,100558.77
2023-04-18T22:38:51.515Z,100556.58
2023-04-18T22:41:22.836Z,100557.92
2023-04-18T22:43:54.278Z,100553.05
2023-04-18T22:46:26.253Z,100553.79
2023-04-18T22:48:57.843Z,100549.21
2023-04-18T22:51:29.159Z,100549.50
2023-04-18T22:54:00.538Z,100543.18
2023-04-18T22:56:31.937Z,100541.04
2023-04-18T22:59:03.314Z,100535.56
2023-04-18T23:01:34.868Z,100532.83
2023-04-18T23:04:06.392Z,100532.52
2023-04-18T23:06:38.866Z,100529.69
2023-04-18T23:09:10.453Z,100524.73
2023-04-18T23:11:41.949Z,100523.48
2023-04-18T23:14:15.815Z,100519.73
2023-04-18T23:16:47.433Z,100517.02
2023-04-18T23:19:18.724Z,100512.04
2023-04-18T23:21:50.276Z,100510.17
2023-04-18T23:24:21.631Z,100507.71
2023-04-18T23:26:53.128Z,100506.76
2023-04-18T23:29:24.522Z,100501.69
2023-04-18T23:31:55.898Z,100501.10
2023-04-18T23:34:27.377Z,100498.52
2023-04-18T23:36:58.991Z,100493.13
2023-04-18T23:39:30.327Z,100488.91
2023-04-18T23:42:01.673Z,100486.41
2023-04-18T23:44:33.071Z,100481.79
2023-04-18T23:47:04.668Z,100483.38
2023-04-18T23:49:36.240Z,100477.98
2023-04-18T23:52:08.401Z,100475.30
2023-04-18T23:54:39.638Z,100471.27
2023-04-18T23:57:11.045Z,100467.81
2023-04-18T23:59:42.499Z,100461.10
